Terminal Aerodrome Forecast
Issued by NWS

Home | Current Version | Previous Version | Graphics & Text | Print | Product List | Glossary On
Versions: 1 2 3 4 5 6 7 8 9 10 11 12 13 14 15 16
000
FTUS43 KMPX 022342
TAFAXN
TAF
KAXN 022342Z 0300/0324 16015G23KT P6SM FEW050 BKN100
     FM030600 16017KT P6SM BKN030
     FM030700 18017KT 2SM -SN OVC015
     FM031000 18012KT 1/2SM SN VV005
     FM031400 32019G27KT 1/4SM SN BLSN VV005
     FM031700 32023G31KT 3/4SM BLSN FEW007 BKN020=

USA.gov is the U.S. government's official web portal to all federal, state and local government web resources and services.